createdAt,value
2024-02-17T00:01:13.911Z,60.25
2024-02-17T00:03:44.503Z,59.75
2024-02-17T00:06:15.324Z,70.75
2024-02-17T00:08:46.565Z,65.00
2024-02-17T00:11:17.199Z,80.75
2024-02-17T00:13:48.106Z,89.00
2024-02-17T00:16:18.685Z,94.75
2024-02-17T00:18:49.343Z,80.75
2024-02-17T00:21:20.140Z,82.50
2024-02-17T00:23:51.477Z,79.50
2024-02-17T00:26:22.127Z,77.50
2024-02-17T00:28:52.827Z,78.50
2024-02-17T00:31:24.858Z,82.25
2024-02-17T00:33:58.603Z,75.25
2024-02-17T00:36:29.568Z,79.50
2024-02-17T00:39:00.500Z,76.50
2024-02-17T00:41:30.899Z,85.25
2024-02-17T00:44:01.167Z,85.00
2024-02-17T00:46:31.345Z,73.50
2024-02-17T00:49:02.823Z,93.75
2024-02-17T00:51:33.374Z,86.75
2024-02-17T00:54:03.677Z,89.50
2024-02-17T00:56:34.102Z,95.25
2024-02-17T00:59:04.215Z,94.25
2024-02-17T01:01:39.461Z,95.00
2024-02-17T01:04:06.640Z,93.25
2024-02-17T01:06:37.395Z,99.75
2024-02-17T01:09:07.648Z,95.25
2024-02-17T01:11:38.022Z,87.50
2024-02-17T01:14:08.145Z,90.00
2024-02-17T01:16:38.248Z,98.75
2024-02-17T01:19:08.557Z,103.00
2024-02-17T01:21:38.829Z,95.25
2024-02-17T01:24:09.106Z,91.25
2024-02-17T01:26:39.168Z,83.75
2024-02-17T01:31:39.605Z,80.75
2024-02-17T01:34:09.746Z,83.75
2024-02-17T01:36:41.393Z,82.00
2024-02-17T01:39:11.594Z,83.00
2024-02-17T01:41:41.658Z,85.75
2024-02-17T01:44:11.878Z,84.75
2024-02-17T01:46:42.454Z,88.00
2024-02-17T01:49:13.121Z,87.75
2024-02-17T01:51:44.838Z,86.75
2024-02-17T01:54:16.323Z,84.25
2024-02-17T01:56:47.822Z,81.50
2024-02-17T01:59:18.719Z,86.75
2024-02-17T02:01:52.211Z,89.75
2024-02-17T02:04:23.016Z,102.25
2024-02-17T02:06:53.366Z,98.25
2024-02-17T02:09:23.598Z,94.00
2024-02-17T02:11:54.142Z,81.75
2024-02-17T02:14:24.930Z,67.75
2024-02-17T02:16:55.099Z,70.75
2024-02-17T02:19:25.778Z,68.00
2024-02-17T02:21:56.040Z,69.25
2024-02-17T02:24:26.334Z,66.00
2024-02-17T02:26:56.550Z,73.50
2024-02-17T02:29:26.838Z,85.00
2024-02-17T02:31:57.113Z,75.25
2024-02-17T02:34:27.476Z,73.25
2024-02-17T02:36:57.648Z,76.25
2024-02-17T02:39:27.967Z,71.00
2024-02-17T02:41:58.198Z,66.75
2024-02-17T02:44:28.663Z,67.50
2024-02-17T02:46:58.847Z,67.00
2024-02-17T02:49:29.071Z,74.50
2024-02-17T02:51:59.288Z,76.25
2024-02-17T02:54:29.663Z,79.00
2024-02-17T02:56:59.886Z,74.75
2024-02-17T02:59:30.091Z,71.25
2024-02-17T03:02:00.956Z,84.00
2024-02-17T03:04:31.326Z,91.25
2024-02-17T03:07:01.768Z,84.00
2024-02-17T03:09:31.888Z,86.75
2024-02-17T03:12:02.099Z,75.50
2024-02-17T03:14:32.580Z,71.75
2024-02-17T03:17:02.714Z,61.25
2024-02-17T03:19:33.532Z,90.00
2024-02-17T03:22:03.758Z,86.50
2024-02-17T03:24:34.230Z,96.00
2024-02-17T03:27:05.139Z,91.50
2024-02-17T03:29:36.308Z,90.00
2024-02-17T03:32:07.232Z,95.00
2024-02-17T03:34:37.772Z,78.75
2024-02-17T03:37:08.189Z,41.75
2024-02-17T03:39:39.065Z,26.00
2024-02-17T03:42:09.316Z,21.75
2024-02-17T03:44:39.629Z,27.25
2024-02-17T03:47:10.074Z,19.00
2024-02-17T03:49:40.393Z,45.25
2024-02-17T03:52:10.715Z,50.25
2024-02-17T03:54:42.577Z,44.25
2024-02-17T03:57:12.863Z,36.00
2024-02-17T03:59:42.926Z,20.75
2024-02-17T04:02:13.205Z,25.25
2024-02-17T04:04:43.408Z,19.25
2024-02-17T04:07:13.593Z,24.75
2024-02-17T04:09:43.778Z,29.25
2024-02-17T04:12:14.140Z,21.50
2024-02-17T04:14:44.177Z,28.50
2024-02-17T04:17:14.467Z,22.25
2024-02-17T04:19:45.144Z,22.50
2024-02-17T04:22:15.395Z,30.00
2024-02-17T04:24:45.781Z,21.50
2024-02-17T04:27:16.152Z,27.00
2024-02-17T04:29:46.313Z,26.25
2024-02-17T04:32:16.540Z,34.50
2024-02-17T04:34:46.897Z,55.40
2024-02-17T04:37:17.219Z,47.25
2024-02-17T04:39:47.448Z,56.80
2024-02-17T04:42:17.583Z,60.80
2024-02-17T04:44:47.686Z,26.25
2024-02-17T04:47:17.827Z,25.75
2024-02-17T04:49:48.133Z,18.25
2024-02-17T04:52:18.169Z,27.00
2024-02-17T04:54:48.414Z,17.25
2024-02-17T04:57:18.608Z,25.50
2024-02-17T04:59:48.743Z,20.50
2024-02-17T05:02:18.840Z,22.25
2024-02-17T05:04:49.051Z,34.50
2024-02-17T05:07:19.191Z,60.20
2024-02-17T05:09:49.415Z,80.00
2024-02-17T05:12:19.651Z,70.75
2024-02-17T05:14:49.806Z,55.00
2024-02-17T05:17:20.003Z,22.75
2024-02-17T05:19:50.171Z,24.50
2024-02-17T05:22:20.471Z,30.50
2024-02-17T05:24:50.810Z,29.75
2024-02-17T05:27:21.256Z,22.75
2024-02-17T05:29:51.371Z,21.50
2024-02-17T05:32:21.696Z,25.25
2024-02-17T05:34:52.127Z,24.00
2024-02-17T05:37:23.159Z,18.75
2024-02-17T05:39:53.381Z,22.25
2024-02-17T05:42:23.730Z,23.25
2024-02-17T05:44:59.916Z,33.00
2024-02-17T05:47:28.204Z,28.00
2024-02-17T05:49:59.749Z,19.75
2024-02-17T05:52:30.264Z,17.00
2024-02-17T05:55:00.587Z,25.50
2024-02-17T05:57:31.050Z,29.50
2024-02-17T06:00:01.107Z,40.75
2024-02-17T06:02:31.291Z,42.25
2024-02-17T06:05:03.107Z,44.80
2024-02-17T06:07:33.523Z,37.00
2024-02-17T06:10:03.758Z,38.00
2024-02-17T06:12:34.202Z,46.25
2024-02-17T06:15:04.586Z,45.00
2024-02-17T06:17:35.087Z,42.50
2024-02-17T06:20:05.572Z,41.00
2024-02-17T06:22:35.841Z,62.00
2024-02-17T06:25:27.010Z,115.00
2024-02-17T06:27:57.271Z,113.00
2024-02-17T06:30:27.562Z,138.50
2024-02-17T06:32:57.735Z,113.25
2024-02-17T06:35:27.920Z,103.00
2024-02-17T06:37:58.290Z,104.00
2024-02-17T06:40:28.522Z,92.50
2024-02-17T06:42:58.708Z,81.25
2024-02-17T06:45:29.110Z,96.50
2024-02-17T06:47:59.204Z,96.75
2024-02-17T06:50:29.315Z,91.25
2024-02-17T06:52:59.399Z,84.00
2024-02-17T06:55:29.736Z,90.00
2024-02-17T06:57:59.995Z,73.75
2024-02-17T07:00:30.326Z,81.25
2024-02-17T07:03:00.851Z,94.00
2024-02-17T07:05:32.042Z,85.00
2024-02-17T07:08:03.096Z,84.75
2024-02-17T07:10:33.369Z,58.75
2024-02-17T07:13:05.576Z,46.75
2024-02-17T07:15:42.934Z,44.50
2024-02-17T07:18:13.718Z,41.50
2024-02-17T07:20:54.493Z,27.25
2024-02-17T07:23:23.228Z,171.00
2024-02-17T07:25:53.436Z,26.00
2024-02-17T07:28:23.606Z,24.00
2024-02-17T07:30:53.919Z,21.75
2024-02-17T07:33:24.181Z,28.50
2024-02-17T07:35:54.266Z,30.75
2024-02-17T07:38:24.529Z,32.50
2024-02-17T07:40:55.286Z,36.00
2024-02-17T07:43:25.559Z,45.00
2024-02-17T07:45:56.005Z,22.50
2024-02-17T07:48:26.400Z,29.75
2024-02-17T07:50:58.883Z,32.25
2024-02-17T07:53:29.119Z,35.00
2024-02-17T07:55:59.237Z,26.25
2024-02-17T07:58:29.427Z,35.25
2024-02-17T08:01:02.100Z,31.50
2024-02-17T08:03:32.440Z,23.50
2024-02-17T08:06:02.556Z,28.50
2024-02-17T08:08:32.946Z,28.50
2024-02-17T08:11:06.461Z,34.25
2024-02-17T08:13:39.582Z,74.50
2024-02-17T08:16:13.430Z,83.25
2024-02-17T08:18:52.748Z,20.75
2024-02-17T08:21:23.137Z,28.50
2024-02-17T08:23:53.339Z,25.25
2024-02-17T08:26:23.590Z,25.75
2024-02-17T08:28:53.792Z,22.25
2024-02-17T08:31:23.892Z,19.50
2024-02-17T08:33:56.181Z,27.50
2024-02-17T08:36:26.337Z,24.50
2024-02-17T08:39:00.625Z,31.50
2024-02-17T08:41:30.952Z,49.25
2024-02-17T08:44:01.306Z,29.25
2024-02-17T08:46:31.727Z,30.25
2024-02-17T08:49:02.983Z,27.75
2024-02-17T08:51:33.513Z,25.25
2024-02-17T08:54:03.852Z,32.75
2024-02-17T08:56:34.188Z,25.75
2024-02-17T08:59:04.348Z,23.00
2024-02-17T09:01:37.507Z,19.25
2024-02-17T09:04:07.754Z,21.75
2024-02-17T09:06:38.094Z,22.00
2024-02-17T09:09:08.330Z,18.50
2024-02-17T09:11:38.527Z,23.50
2024-02-17T09:14:10.194Z,22.00
2024-02-17T09:16:42.948Z,24.00
2024-02-17T09:19:14.792Z,24.25
2024-02-17T09:21:47.810Z,25.00
2024-02-17T09:24:18.520Z,24.50
2024-02-17T09:26:50.125Z,53.00
2024-02-17T09:29:20.254Z,24.50
2024-02-17T09:31:50.491Z,21.00
2024-02-17T09:34:20.901Z,17.25
2024-02-17T09:36:51.460Z,19.00
2024-02-17T09:39:21.563Z,20.25
2024-02-17T09:41:51.705Z,19.75
2024-02-17T09:44:24.920Z,21.00
2024-02-17T09:46:57.308Z,22.75
2024-02-17T09:49:28.325Z,23.25
2024-02-17T09:51:58.900Z,19.25
2024-02-17T09:54:29.854Z,18.25
2024-02-17T09:57:01.091Z,21.00
2024-02-17T09:59:31.684Z,21.00
2024-02-17T10:02:01.800Z,15.75
2024-02-17T10:04:32.285Z,16.75
2024-02-17T10:07:03.419Z,21.75
2024-02-17T10:09:35.447Z,20.00
2024-02-17T10:12:06.617Z,20.75
2024-02-17T10:14:36.904Z,20.00
2024-02-17T10:17:07.401Z,9.25
2024-02-17T10:19:37.846Z,20.00
2024-02-17T10:22:09.255Z,16.25
2024-02-17T10:24:39.541Z,14.50
2024-02-17T10:27:11.653Z,18.25
2024-02-17T10:29:41.910Z,17.25
2024-02-17T10:32:13.719Z,13.25
2024-02-17T10:34:45.432Z,14.50
2024-02-17T10:37:16.571Z,17.00
2024-02-17T10:39:48.951Z,19.50
2024-02-17T10:42:19.137Z,3.75
2024-02-17T10:44:49.330Z,17.25
2024-02-17T10:47:22.767Z,19.00
2024-02-17T10:49:55.988Z,16.75
2024-02-17T10:52:29.205Z,12.75
2024-02-17T10:55:05.299Z,18.75
2024-02-17T10:57:40.580Z,19.25
2024-02-17T11:00:14.118Z,18.00
2024-02-17T11:02:45.914Z,15.50
2024-02-17T11:05:20.917Z,18.50
2024-02-17T11:07:56.533Z,5.50
2024-02-17T11:10:33.711Z,17.75
2024-02-17T11:13:04.619Z,14.50
2024-02-17T11:15:40.811Z,16.00
2024-02-17T11:18:14.560Z,16.00
2024-02-17T11:20:46.340Z,16.25
2024-02-17T11:23:17.713Z,11.50
2024-02-17T11:25:55.376Z,18.25
2024-02-17T11:28:24.277Z,15.00
2024-02-17T11:30:57.698Z,17.50
2024-02-17T11:33:35.606Z,19.25
2024-02-17T11:36:06.578Z,13.50
2024-02-17T11:38:40.258Z,14.75
2024-02-17T11:41:13.659Z,17.25
2024-02-17T11:43:52.006Z,18.75
2024-02-17T11:46:24.639Z,18.25
2024-02-17T11:48:58.168Z,18.00
2024-02-17T11:51:34.962Z,16.40
2024-02-17T11:54:13.527Z,15.00
2024-02-17T11:56:49.423Z,18.20
2024-02-17T11:59:21.491Z,15.75
2024-02-17T12:02:01.857Z,18.50
2024-02-17T12:04:40.539Z,12.00
2024-02-17T12:07:10.609Z,13.20
2024-02-17T12:12:25.553Z,15.60
2024-02-17T12:14:56.634Z,18.00
2024-02-17T12:17:34.267Z,17.50
2024-02-17T12:20:07.663Z,18.50
2024-02-17T12:22:38.198Z,16.00
2024-02-17T12:25:09.121Z,15.75
2024-02-17T12:27:42.987Z,20.25
2024-02-17T12:30:14.360Z,16.50
2024-02-17T12:32:45.607Z,21.00
2024-02-17T12:35:18.000Z,15.75
2024-02-17T12:37:49.883Z,18.75
2024-02-17T12:40:22.301Z,19.75
2024-02-17T12:42:54.693Z,18.00
2024-02-17T12:45:30.581Z,16.75
2024-02-17T12:48:05.949Z,18.25
2024-02-17T12:50:36.872Z,21.00
2024-02-17T12:53:15.706Z,18.75
2024-02-17T12:55:48.373Z,16.50
2024-02-17T12:58:19.574Z,17.50
2024-02-17T13:00:50.598Z,19.00
2024-02-17T13:03:21.108Z,21.75
2024-02-17T13:05:51.739Z,18.25
2024-02-17T13:08:22.075Z,17.00
2024-02-17T13:10:54.650Z,31.25
2024-02-17T13:13:24.860Z,17.25
2024-02-17T13:15:55.213Z,21.50
2024-02-17T13:18:25.574Z,9.75
2024-02-17T13:20:55.988Z,20.50
2024-02-17T13:23:26.282Z,20.75
2024-02-17T13:25:56.724Z,20.00
2024-02-17T13:28:27.283Z,17.00
2024-02-17T13:30:57.844Z,17.50
2024-02-17T13:33:31.249Z,20.50
2024-02-17T13:36:01.812Z,19.00
2024-02-17T13:38:32.113Z,18.25
2024-02-17T13:41:02.304Z,23.00
2024-02-17T13:43:35.657Z,12.75
2024-02-17T13:46:06.064Z,51.25
2024-02-17T13:48:36.248Z,11.00
2024-02-17T13:51:06.470Z,12.75
2024-02-17T13:53:36.915Z,16.00
2024-02-17T13:56:09.055Z,17.00
2024-02-17T13:58:39.553Z,18.25
2024-02-17T14:01:12.734Z,18.00
2024-02-17T14:03:43.156Z,12.00
2024-02-17T14:06:13.733Z,13.25
2024-02-17T14:08:46.939Z,21.75
2024-02-17T14:11:16.671Z,31.50
2024-02-17T14:13:46.831Z,20.75
2024-02-17T14:16:17.067Z,27.25
2024-02-17T14:18:47.466Z,34.50
2024-02-17T14:21:17.826Z,41.75
2024-02-17T14:23:48.109Z,46.00
2024-02-17T14:26:18.450Z,65.75
2024-02-17T14:28:48.970Z,73.25
2024-02-17T14:31:19.586Z,79.00
2024-02-17T14:33:49.998Z,88.40
2024-02-17T14:36:20.332Z,82.80
2024-02-17T14:38:50.634Z,50.60
2024-02-17T14:41:21.236Z,31.00
2024-02-17T14:43:51.633Z,29.25
2024-02-17T14:46:21.827Z,19.00
2024-02-17T14:48:52.432Z,20.50
2024-02-17T14:51:22.923Z,20.50
2024-02-17T14:53:56.027Z,17.00
2024-02-17T14:56:29.449Z,19.25
2024-02-17T14:59:01.923Z,5.50
2024-02-17T15:01:32.556Z,19.75
2024-02-17T15:04:06.445Z,17.75
2024-02-17T15:06:40.081Z,12.00
2024-02-17T15:09:10.396Z,19.00
2024-02-17T15:11:46.924Z,14.25
2024-02-17T15:14:20.140Z,16.75
2024-02-17T15:16:50.383Z,15.25
2024-02-17T15:19:21.653Z,14.00
2024-02-17T15:21:52.341Z,13.75
2024-02-17T15:24:23.038Z,16.00
2024-02-17T15:26:58.880Z,16.25
2024-02-17T15:29:29.215Z,12.75
2024-02-17T15:31:59.391Z,18.00
2024-02-17T15:34:29.817Z,10.25
2024-02-17T15:37:00.145Z,14.75
2024-02-17T15:39:30.554Z,18.00
2024-02-17T15:42:00.835Z,11.50
2024-02-17T15:44:34.580Z,24.25
2024-02-17T15:47:08.244Z,13.50
2024-02-17T15:49:41.216Z,17.25
2024-02-17T15:52:16.763Z,16.00
2024-02-17T15:54:53.238Z,24.00
2024-02-17T15:57:29.989Z,20.25
2024-02-17T16:00:01.849Z,26.50
2024-02-17T16:02:32.481Z,20.75
2024-02-17T16:05:03.023Z,25.75
2024-02-17T16:07:46.257Z,29.25
2024-02-17T16:10:18.642Z,24.00
2024-02-17T16:12:48.906Z,26.75
2024-02-17T16:15:19.391Z,31.50
2024-02-17T16:17:49.941Z,38.00
2024-02-17T16:20:20.773Z,35.50
2024-02-17T16:22:52.178Z,37.50
2024-02-17T16:25:22.534Z,31.75
2024-02-17T16:27:55.255Z,41.50
2024-02-17T16:30:25.522Z,38.75
2024-02-17T16:32:55.855Z,35.25
2024-02-17T16:35:26.467Z,34.75
2024-02-17T16:37:56.688Z,44.25
2024-02-17T16:40:29.584Z,48.00
2024-02-17T16:43:01.594Z,52.75
2024-02-17T16:45:35.727Z,56.75
2024-02-17T16:48:06.580Z,66.25
2024-02-17T16:50:37.048Z,79.25
2024-02-17T16:53:07.582Z,82.00
2024-02-17T16:55:37.966Z,86.50
2024-02-17T16:58:08.197Z,81.00
2024-02-17T17:00:40.114Z,85.25
2024-02-17T17:03:11.443Z,84.75
2024-02-17T17:05:41.923Z,86.00
2024-02-17T17:08:12.160Z,86.75
2024-02-17T17:10:42.582Z,91.00
2024-02-17T17:13:13.076Z,92.50
2024-02-17T17:15:43.309Z,91.50
2024-02-17T17:18:15.085Z,96.50
2024-02-17T17:20:45.628Z,100.75
2024-02-17T17:23:17.803Z,96.25
2024-02-17T17:25:51.003Z,92.25
2024-02-17T17:28:21.533Z,88.25
2024-02-17T17:30:51.844Z,80.75
2024-02-17T17:33:22.237Z,72.50
2024-02-17T17:35:54.777Z,63.50
2024-02-17T17:38:25.223Z,49.00
2024-02-17T17:41:00.115Z,44.00
2024-02-17T17:43:34.294Z,64.50
2024-02-17T17:46:11.745Z,42.00
2024-02-17T17:48:42.120Z,20.75
2024-02-17T17:51:12.837Z,49.50
2024-02-17T17:53:43.150Z,51.50
2024-02-17T17:56:17.093Z,56.50
2024-02-17T17:58:47.011Z,51.75
2024-02-17T18:01:23.629Z,64.25
2024-02-17T18:03:50.366Z,46.25
2024-02-17T18:06:23.702Z,48.00
2024-02-17T18:08:54.121Z,48.50
2024-02-17T18:11:24.733Z,42.00
2024-02-17T18:13:55.161Z,51.75
2024-02-17T18:16:27.474Z,39.75
2024-02-17T18:18:59.890Z,43.50
2024-02-17T18:21:37.048Z,34.75
2024-02-17T18:24:07.659Z,46.00
2024-02-17T18:26:38.045Z,44.00
2024-02-17T18:29:11.062Z,31.75
2024-02-17T18:31:41.557Z,36.50
2024-02-17T18:34:11.979Z,26.25
2024-02-17T18:36:43.166Z,38.25
2024-02-17T18:39:17.811Z,39.50
2024-02-17T18:41:57.343Z,40.00
2024-02-17T18:44:27.802Z,39.50
2024-02-17T18:46:59.060Z,36.25
2024-02-17T18:49:44.315Z,39.00
2024-02-17T18:52:14.927Z,15.50
2024-02-17T18:54:46.826Z,34.00
2024-02-17T18:57:18.774Z,16.25
2024-02-17T18:59:50.659Z,30.25
2024-02-17T19:02:21.253Z,34.25
2024-02-17T19:04:51.464Z,32.75
2024-02-17T19:07:21.947Z,27.00
2024-02-17T19:09:52.240Z,38.25
2024-02-17T19:12:25.368Z,32.25
2024-02-17T19:14:55.575Z,34.25
2024-02-17T19:17:26.496Z,38.75
2024-02-17T19:19:56.733Z,43.75
2024-02-17T19:22:27.562Z,34.00
2024-02-17T19:24:57.949Z,41.25
2024-02-17T19:27:28.501Z,40.00
2024-02-17T19:29:58.774Z,32.25
2024-02-17T19:32:29.045Z,39.75
2024-02-17T19:35:02.113Z,46.50
2024-02-17T19:37:33.205Z,40.25
2024-02-17T19:40:04.565Z,48.50
2024-02-17T19:42:35.442Z,35.75
2024-02-17T19:45:06.358Z,45.50
2024-02-17T19:47:37.514Z,60.50
2024-02-17T19:50:12.503Z,52.50
2024-02-17T19:52:46.467Z,49.50
2024-02-17T19:55:20.391Z,54.50
2024-02-17T19:57:53.493Z,58.50
2024-02-17T20:00:23.942Z,53.75
2024-02-17T20:02:55.972Z,53.00
2024-02-17T20:05:26.758Z,49.00
2024-02-17T20:07:57.120Z,42.75
2024-02-17T20:10:30.505Z,48.25
2024-02-17T20:13:05.275Z,47.25
2024-02-17T20:15:36.644Z,55.50
2024-02-17T20:18:10.669Z,50.50
2024-02-17T20:20:41.119Z,49.00
2024-02-17T20:23:11.764Z,53.75
2024-02-17T20:25:42.069Z,55.50
2024-02-17T20:28:12.499Z,46.75
2024-02-17T20:30:42.768Z,59.25
2024-02-17T20:33:13.431Z,46.50
2024-02-17T20:35:48.200Z,38.00
2024-02-17T20:38:18.758Z,34.00
2024-02-17T20:40:49.261Z,39.25
2024-02-17T20:43:19.959Z,40.75
2024-02-17T20:45:50.447Z,31.75
2024-02-17T20:48:21.588Z,17.75
2024-02-17T20:50:52.049Z,25.00
2024-02-17T20:53:34.786Z,15.50
2024-02-17T20:56:15.245Z,22.00
2024-02-17T20:58:45.467Z,27.25
2024-02-17T21:01:17.388Z,25.50
2024-02-17T21:03:51.015Z,23.25
2024-02-17T21:06:21.302Z,25.00
2024-02-17T21:08:51.814Z,26.25
2024-02-17T21:11:22.529Z,32.00
2024-02-17T21:13:52.923Z,22.00
2024-02-17T21:16:24.655Z,25.75
2024-02-17T21:18:54.907Z,30.50
2024-02-17T21:21:26.062Z,29.50
2024-02-17T21:23:59.501Z,15.75
2024-02-17T21:26:29.898Z,24.50
2024-02-17T21:29:02.326Z,27.25
2024-02-17T21:31:32.675Z,32.50
2024-02-17T21:34:03.332Z,28.75
2024-02-17T21:36:35.786Z,30.75
2024-02-17T21:39:08.012Z,45.00
2024-02-17T21:41:48.680Z,48.00
2024-02-17T21:44:19.041Z,42.75
2024-02-17T21:46:49.343Z,35.00
2024-02-17T21:49:19.576Z,33.25
2024-02-17T21:51:51.094Z,26.25
2024-02-17T21:54:21.282Z,25.00
2024-02-17T21:56:56.243Z,28.75
2024-02-17T21:59:26.550Z,35.00
2024-02-17T22:02:05.061Z,24.00
2024-02-17T22:04:36.034Z,28.50
2024-02-17T22:07:06.679Z,17.25
2024-02-17T22:09:37.023Z,23.75
2024-02-17T22:12:07.361Z,29.25
2024-02-17T22:14:37.577Z,19.50
2024-02-17T22:17:09.854Z,38.00
2024-02-17T22:19:42.275Z,28.50
2024-02-17T22:22:12.798Z,36.00
2024-02-17T22:24:43.101Z,38.00
2024-02-17T22:27:13.713Z,40.75
2024-02-17T22:29:44.270Z,38.00
2024-02-17T22:32:17.306Z,40.50
2024-02-17T22:34:47.811Z,52.50
2024-02-17T22:37:18.637Z,57.50
2024-02-17T22:39:48.816Z,65.25
2024-02-17T22:42:19.083Z,58.25
2024-02-17T22:44:49.971Z,59.75
2024-02-17T22:47:20.386Z,52.25
2024-02-17T22:49:50.846Z,74.75
2024-02-17T22:52:21.317Z,69.25
2024-02-17T22:54:51.736Z,38.25
2024-02-17T22:57:22.230Z,78.25
2024-02-17T22:59:52.668Z,77.50
2024-02-17T23:02:24.457Z,72.25
2024-02-17T23:04:56.493Z,69.00
2024-02-17T23:07:26.981Z,67.75
2024-02-17T23:09:57.366Z,61.00
2024-02-17T23:12:30.452Z,58.25
2024-02-17T23:15:00.855Z,61.00
2024-02-17T23:17:31.787Z,60.75
2024-02-17T23:20:02.795Z,56.50
2024-02-17T23:22:36.112Z,69.75
2024-02-17T23:25:07.353Z,79.00
2024-02-17T23:27:37.886Z,74.00
2024-02-17T23:30:12.401Z,70.50
2024-02-17T23:32:42.831Z,69.25
2024-02-17T23:35:15.904Z,68.50
2024-02-17T23:37:44.976Z,63.25
2024-02-17T23:40:15.625Z,62.00
2024-02-17T23:42:45.842Z,55.25
2024-02-17T23:45:16.041Z,62.75
2024-02-17T23:47:46.386Z,10.50
2024-02-17T23:50:16.737Z,49.75
2024-02-17T23:52:46.906Z,31.50
2024-02-17T23:55:17.134Z,42.00
2024-02-17T23:57:47.339Z,43.50
